KIMT/IMT METAR and TAF weather

Enter ICAO airport designator
Station Type Date Time Source
KIMT METAR 2019/10/23 01:54 UTC NOAA

KIMT 230154Z AUTO 25011G18KT 220V280 10SM BKN019 OVC026 06/02 A2941 RMK AO2 SLP969 T00560017


Station Type Date Time Source
KIMT Decoded METAR 2019/10/23 01:54 UTC NOAA

IRON MOUNTAIN FORD AIRPORT, MI, United States (KIMT) 45-49N 88-07W 349M
Oct 22, 2019 - 09:54 PM EDT / 2019.10.23 0154 UTC
Wind: from the WSW (250 degrees) at 13 MPH (11 KT) gusting to 21 MPH (18 KT) (direction variable):0
Visibility: 10 mile(s):0
Sky conditions: overcast
Temperature: 42.1 F (5.6 C)
Dew Point: 35.1 F (1.7 C)
Relative Humidity: 75%
Pressure (altimeter): 29.41 in. Hg (995 hPa)
ob: KIMT 230154Z AUTO 25011G18KT 220V280 10SM BKN019 OVC026 06/02 A2941 RMK AO2 SLP969 T00560017
cycle: 2

Station Type Date Time Source
KIMT TAF UTC NOAA

Error!

Example: see airport list